Time;durP1;ratioP1;P1;durP2;ratioP2;P2;SDS_P1;SDS_P2;PMS_P1;PMS_P2;Temp;Humidity;BMP_temperature;BMP_pressure;BME280_temperature;BME280_humidity;BME280_pressure;Samples;Min_cycle;Max_cycle;Signal;HPM_P1;HPM_P2
2021/06/15 00:02:20;;;;;;;3.60;1.92;;;19.80;69.70;;;;;;5059626;28;20052;-88
2021/06/15 00:04:46;;;;;;;4.97;2.50;;;19.90;69.80;;;;;;5058723;28;20074;-89
2021/06/15 00:07:11;;;;;;;2.95;2.05;;;19.90;69.40;;;;;;5059187;28;20032;-88
2021/06/15 00:09:37;;;;;;;3.92;2.45;;;19.90;69.30;;;;;;5076453;28;20024;-93
2021/06/15 00:12:08;;;;;;;5.40;2.38;;;19.90;69.40;;;;;;5059062;28;20052;-93
2021/06/15 00:14:34;;;;;;;5.07;2.70;;;19.80;69.80;;;;;;5058837;28;20035;-93
2021/06/15 00:16:59;;;;;;;4.25;2.30;;;19.80;69.60;;;;;;5059020;28;20112;-93
2021/06/15 00:19:25;;;;;;;4.60;2.28;;;19.70;70.10;;;;;;5058282;28;20051;-93
2021/06/15 00:21:51;;;;;;;2.63;2.10;;;19.60;70.20;;;;;;5077259;28;20059;-93
2021/06/15 00:24:16;;;;;;;3.97;2.30;;;19.60;70.80;;;;;;5059136;28;20063;-94
2021/06/15 00:26:42;;;;;;;3.47;2.10;;;19.50;71.00;;;;;;5058429;28;20025;-93
2021/06/15 00:29:08;;;;;;;4.63;2.35;;;19.50;71.00;;;;;;5059151;28;20024;-92
2021/06/15 00:31:34;;;;;;;3.05;2.28;;;19.40;71.30;;;;;;5058432;28;20055;-90
2021/06/15 00:34:00;;;;;;;4.63;2.30;;;19.30;71.50;;;;;;5059257;28;20389;-91
2021/06/15 00:36:25;;;;;;;2.50;2.30;;;19.30;71.60;;;;;;5076159;28;20025;-91
2021/06/15 00:38:51;;;;;;;4.10;2.10;;;19.30;71.80;;;;;;5058911;28;20452;-93
2021/06/15 00:41:17;;;;;;;5.43;2.40;;;19.30;71.80;;;;;;5059119;28;20024;-91
2021/06/15 00:43:42;;;;;;;3.97;2.47;;;19.20;72.00;;;;;;5058481;28;20043;-90
2021/06/15 00:46:08;;;;;;;2.47;1.83;;;19.10;72.30;;;;;;5058888;28;20029;-90
2021/06/15 00:48:36;;;;;;;2.80;2.05;;;19.10;72.30;;;;;;5058273;28;20542;-94
2021/06/15 00:51:04;;;;;;;4.40;2.35;;;19.10;72.10;;;;;;5058415;28;20025;-95
2021/06/15 00:53:34;;;;;;;2.60;2.00;;;19.10;72.10;;;;;;5058091;28;20025;-94
2021/06/15 00:56:00;;;;;;;3.03;1.83;;;19.10;72.10;;;;;;5058465;28;20380;-94
2021/06/15 00:58:26;;;;;;;2.70;1.92;;;19.10;71.90;;;;;;5057950;28;20036;-89
2021/06/15 01:00:52;;;;;;;3.75;2.20;;;19.10;71.90;;;;;;5058330;28;20050;-94
2021/06/15 01:03:20;;;;;;;4.43;2.40;;;19.10;71.80;;;;;;5058548;28;20021;-93
2021/06/15 01:05:47;;;;;;;3.42;2.30;;;19.10;72.20;;;;;;5057834;28;20208;-93
2021/06/15 01:08:16;;;;;;;3.17;2.38;;;19.10;72.10;;;;;;5057274;28;20036;-95
2021/06/15 01:11:04;;;;;;;4.03;2.40;;;19.20;72.20;;;;;;5057446;28;20086;-95
2021/06/15 01:13:32;;;;;;;3.08;2.05;;;19.20;71.60;;;;;;5057797;28;20025;-94
2021/06/15 01:16:25;;;;;;;3.15;2.10;;;19.30;71.10;;;;;;5058111;28;20027;-95
2021/06/15 01:18:58;;;;;;;7.10;2.28;;;19.30;70.90;;;;;;5058296;28;20063;-94
2021/06/15 01:21:26;;;;;;;3.17;2.10;;;19.30;71.00;;;;;;5058247;28;20024;-91
2021/06/15 01:24:24;;;;;;;4.22;2.45;;;19.30;70.70;;;;;;5058115;28;20047;-94
2021/06/15 01:27:04;;;;;;;4.38;2.47;;;19.30;70.90;;;;;;5075353;28;20029;-88
2021/06/15 01:29:38;;;;;;;4.22;2.22;;;19.30;70.60;;;;;;5057277;28;20055;-92
2021/06/15 01:32:28;;;;;;;3.88;2.30;;;19.30;70.80;;;;;;5057895;28;20032;-91
2021/06/15 01:34:55;;;;;;;6.10;2.40;;;19.20;70.70;;;;;;5058366;28;20085;-90
2021/06/15 01:37:28;;;;;;;3.22;2.10;;;19.20;71.00;;;;;;5057408;28;20127;-91
2021/06/15 01:40:13;;;;;;;4.80;2.40;;;19.10;71.40;;;;;;5057741;28;20028;-91
2021/06/15 01:42:52;;;;;;;3.03;2.00;;;19.00;71.90;;;;;;5060812;28;20028;-91
2021/06/15 01:45:22;;;;;;;3.10;2.30;;;18.90;72.60;;;;;;5064821;28;20380;-90
2021/06/15 01:48:24;;;;;;;4.95;2.55;;;18.90;72.70;;;;;;5058061;28;20337;-89
2021/06/15 01:50:52;;;;;;;3.42;2.30;;;18.90;72.60;;;;;;5070183;28;20029;-90
2021/06/15 01:53:19;;;;;;;5.28;2.38;;;18.90;72.30;;;;;;5057471;28;20036;-90
2021/06/15 01:55:51;;;;;;;3.15;2.22;;;18.80;72.20;;;;;;5050661;28;20029;-89
2021/06/15 01:58:17;;;;;;;;;;;18.80;72.50;;;;;;5057748;28;20041;-90
2021/06/15 02:00:44;;;;;;;3.60;2.10;;;18.70;72.80;;;;;;5056667;28;20277;-90
2021/06/15 02:03:11;;;;;;;4.68;2.30;;;18.60;73.10;;;;;;5057314;28;20036;-90
2021/06/15 02:05:51;;;;;;;5.57;2.50;;;18.60;73.10;;;;;;5056885;28;20028;-90
2021/06/15 02:08:26;;;;;;;3.97;2.33;;;18.60;73.70;;;;;;5057093;28;20097;-90
2021/06/15 02:10:54;;;;;;;3.88;2.15;;;18.50;73.50;;;;;;5056498;28;20028;-90
2021/06/15 02:13:20;;;;;;;4.40;2.30;;;18.50;74.10;;;;;;5056997;28;20025;-89
2021/06/15 02:15:48;;;;;;;5.05;2.22;;;18.30;74.10;;;;;;5056717;28;20039;-91
2021/06/15 02:18:19;;;;;;;4.30;2.10;;;18.30;74.60;;;;;;5056622;28;20041;-90
2021/06/15 02:20:46;;;;;;;3.13;2.17;;;18.30;74.50;;;;;;5056102;28;20554;-90
2021/06/15 02:23:17;;;;;;;4.22;2.40;;;18.30;74.00;;;;;;5056561;28;20039;-88
2021/06/15 02:25:43;;;;;;;5.18;2.22;;;18.20;74.60;;;;;;5074424;28;20017;-91
2021/06/15 02:28:09;;;;;;;3.72;2.28;;;18.10;75.00;;;;;;5057158;28;20132;-90
2021/06/15 02:30:35;;;;;;;4.75;2.58;;;18.00;75.10;;;;;;5056405;28;20024;-90
2021/06/15 02:33:08;;;;;;;2.83;2.20;;;18.00;75.00;;;;;;5056717;28;20150;-89
2021/06/15 02:35:38;;;;;;;2.55;2.33;;;18.00;75.20;;;;;;5073836;28;20051;-86
2021/06/15 02:38:11;;;;;;;3.00;2.08;;;17.90;75.70;;;;;;5056739;28;20035;-86
2021/06/15 02:40:40;;;;;;;3.20;2.33;;;17.90;75.60;;;;;;5056073;28;20035;-86
2021/06/15 02:43:07;;;;;;;5.68;2.45;;;17.90;75.10;;;;;;5056403;28;20028;-86
2021/06/15 02:45:34;;;;;;;3.88;2.40;;;17.90;75.30;;;;;;5056162;28;20461;-86
2021/06/15 02:51:08;;;;;;;4.50;2.30;;;17.90;75.30;;;;;;5014453;28;20145;-89
2021/06/15 02:54:03;;;;;;;3.45;2.35;;;17.90;75.40;;;;;;5055836;28;20032;-90
2021/06/15 02:56:32;;;;;;;4.03;2.10;;;17.90;75.00;;;;;;5030988;28;20033;-88
2021/06/15 02:58:58;;;;;;;5.28;2.67;;;18.00;75.70;;;;;;5074001;28;20358;-88
2021/06/15 03:01:23;;;;;;;3.92;2.10;;;18.00;74.80;;;;;;5066801;28;20032;-89
2021/06/15 03:03:49;;;;;;;5.50;2.20;;;18.10;74.60;;;;;;5076101;28;20054;-89
2021/06/15 03:06:15;;;;;;;4.10;2.28;;;18.00;74.30;;;;;;5076442;28;20081;-89
2021/06/15 03:08:41;;;;;;;2.67;2.28;;;18.00;74.60;;;;;;5076088;28;20445;-88
2021/06/15 03:11:07;;;;;;;4.22;2.47;;;18.00;74.90;;;;;;5075775;28;20101;-86
2021/06/15 03:13:40;;;;;;;7.00;2.70;;;17.90;75.10;;;;;;5076121;28;20484;-86
2021/06/15 03:16:08;;;;;;;4.07;2.40;;;17.90;75.10;;;;;;5067353;28;20033;-89
2021/06/15 03:18:46;;;;;;;8.25;2.58;;;17.90;75.10;;;;;;5055867;28;20087;-88
2021/06/15 03:21:20;;;;;;;5.40;2.38;;;17.90;75.60;;;;;;5065490;28;20043;-89
2021/06/15 03:24:07;;;;;;;3.63;2.40;;;17.90;75.70;;;;;;5075764;28;20024;-89
2021/06/15 03:27:00;;;;;;;4.97;2.60;;;17.80;75.60;;;;;;5063384;28;20032;-87
2021/06/15 03:29:29;;;;;;;3.15;2.63;;;17.70;75.60;;;;;;5056254;28;20051;-87
2021/06/15 03:32:00;;;;;;;4.38;2.50;;;17.70;76.10;;;;;;5074305;28;20035;-90
2021/06/15 03:34:30;;;;;;;5.97;2.67;;;17.80;75.90;;;;;;5080545;28;20143;-90
2021/06/15 03:36:58;;;;;;;6.05;2.60;;;17.80;76.50;;;;;;5079187;28;20066;-87
2021/06/15 03:39:25;;;;;;;5.82;2.53;;;17.80;75.70;;;;;;5097756;28;20028;-87
2021/06/15 03:41:53;;;;;;;5.25;2.40;;;17.80;76.00;;;;;;5064300;28;20044;-88
2021/06/15 03:44:21;;;;;;;4.30;2.90;;;17.70;76.50;;;;;;5058456;28;20465;-88
2021/06/15 03:46:50;;;;;;;6.47;2.78;;;17.60;76.90;;;;;;5059666;28;20059;-89
2021/06/15 03:49:17;;;;;;;4.45;2.75;;;17.60;76.80;;;;;;5059857;28;20131;-90
2021/06/15 03:51:49;;;;;;;4.63;2.55;;;17.60;77.10;;;;;;5058761;28;20119;-89
2021/06/15 03:54:15;;;;;;;5.80;2.50;;;17.60;77.10;;;;;;5059605;28;20031;-89
2021/06/15 03:56:45;;;;;;;3.47;2.70;;;17.70;77.00;;;;;;5059149;28;20024;-88
2021/06/15 03:59:21;;;;;;;8.48;3.08;;;17.70;77.10;;;;;;5076958;28;20031;-88
2021/06/15 04:01:50;;;;;;;5.00;2.65;;;17.70;77.40;;;;;;5076348;28;20028;-92
2021/06/15 04:04:17;;;;;;;4.32;3.00;;;17.70;77.00;;;;;;5059227;28;20024;-90
2021/06/15 04:06:49;;;;;;;4.10;2.92;;;17.60;77.60;;;;;;5059161;28;20020;-91
2021/06/15 04:09:18;;;;;;;4.05;2.40;;;17.60;77.60;;;;;;5059725;28;20071;-90
2021/06/15 04:11:45;;;;;;;4.30;2.97;;;17.60;77.50;;;;;;5058604;28;20025;-91
2021/06/15 04:14:12;;;;;;;4.20;2.67;;;17.50;77.50;;;;;;5051887;28;20024;-93
2021/06/15 04:16:39;;;;;;;4.55;2.70;;;17.50;77.60;;;;;;5058751;28;20029;-87
2021/06/15 04:19:14;;;;;;;4.63;2.70;;;17.50;77.90;;;;;;5058587;28;20048;-88
2021/06/15 04:21:44;;;;;;;3.97;2.60;;;17.50;78.20;;;;;;5058105;28;20109;-88
2021/06/15 04:24:14;;;;;;;5.80;2.50;;;17.50;78.10;;;;;;5059471;28;20058;-86
2021/06/15 04:26:40;;;;;;;5.60;2.63;;;17.50;78.00;;;;;;5058319;28;20033;-87
2021/06/15 04:29:07;;;;;;;5.93;2.75;;;17.60;77.90;;;;;;5059375;28;20393;-88
2021/06/15 04:31:35;;;;;;;2.92;2.22;;;17.50;77.90;;;;;;5058244;28;20054;-88
2021/06/15 04:34:02;;;;;;;5.35;2.60;;;17.60;78.20;;;;;;5058299;28;20465;-93
2021/06/15 04:36:31;;;;;;;5.40;2.53;;;17.50;78.20;;;;;;5059820;28;20075;-91
2021/06/15 04:39:05;;;;;;;4.45;2.72;;;17.50;78.30;;;;;;5076447;28;20028;-91
2021/06/15 04:41:48;;;;;;;4.28;2.45;;;17.50;78.30;;;;;;5057747;28;20034;-93
2021/06/15 04:44:24;;;;;;;4.45;2.67;;;17.40;78.50;;;;;;5077314;28;20099;-92
2021/06/15 04:46:54;;;;;;;4.03;2.72;;;17.40;78.50;;;;;;5057877;28;20036;-89
2021/06/15 04:49:23;;;;;;;3.17;2.65;;;17.40;78.90;;;;;;5058285;28;20098;-89
2021/06/15 04:51:52;;;;;;;6.30;2.22;;;17.40;79.20;;;;;;5057856;28;20135;-89
2021/06/15 04:54:21;;;;;;;5.18;2.67;;;17.40;79.20;;;;;;5058652;28;20024;-90
2021/06/15 04:56:49;;;;;;;4.60;2.63;;;17.40;79.40;;;;;;5057651;28;20035;-89
2021/06/15 04:59:15;;;;;;;5.55;2.30;;;17.40;79.30;;;;;;5058189;28;20025;-89
2021/06/15 05:01:43;;;;;;;4.80;2.30;;;17.40;80.10;;;;;;5057887;28;20029;-94
2021/06/15 05:04:09;;;;;;;4.10;2.20;;;17.40;79.70;;;;;;5068077;28;20043;-94
2021/06/15 05:06:42;;;;;;;4.55;2.45;;;17.50;79.50;;;;;;5058162;28;20469;-90
2021/06/15 05:09:09;;;;;;;5.85;2.50;;;17.50;79.60;;;;;;5058499;28;20036;-90
2021/06/15 05:11:37;;;;;;;6.15;2.55;;;17.50;79.40;;;;;;5071296;28;20054;-96
2021/06/15 05:14:09;;;;;;;6.13;2.65;;;17.60;79.20;;;;;;5077889;28;20028;-95
2021/06/15 05:16:41;;;;;;;3.75;2.20;;;17.60;79.60;;;;;;5077996;28;20023;-92
2021/06/15 05:19:06;;;;;;;3.45;2.35;;;17.70;79.20;;;;;;5077859;28;20496;-92
2021/06/15 05:21:59;;;;;;;5.22;2.55;;;17.70;79.40;;;;;;5065664;28;20029;-88
2021/06/15 05:24:46;;;;;;;3.92;2.35;;;17.80;79.30;;;;;;5057685;28;20033;-89
2021/06/15 05:27:13;;;;;;;5.53;2.60;;;17.80;79.70;;;;;;5070959;28;20090;-89
2021/06/15 05:29:38;;;;;;;7.30;2.65;;;17.80;79.70;;;;;;5075948;28;20028;-95
2021/06/15 05:32:07;;;;;;;4.60;2.38;;;17.80;79.90;;;;;;5091353;28;20055;-95
2021/06/15 05:34:34;;;;;;;5.00;2.28;;;17.90;79.80;;;;;;5095501;28;20465;-94
2021/06/15 05:37:01;;;;;;;4.93;2.35;;;17.90;80.80;;;;;;5076653;28;20031;-94
2021/06/15 05:39:27;;;;;;;6.35;2.47;;;17.80;80.40;;;;;;5095771;28;20055;-94
2021/06/15 05:41:52;;;;;;;5.43;2.70;;;17.90;80.20;;;;;;5077784;28;20035;-92
2021/06/15 05:44:18;;;;;;;3.95;2.70;;;18.00;80.00;;;;;;5098453;28;20037;-92
2021/06/15 05:46:43;;;;;;;3.63;2.45;;;18.00;80.30;;;;;;5096358;28;20035;-88
2021/06/15 05:49:10;;;;;;;5.15;2.83;;;18.00;80.20;;;;;;5077743;28;20515;-86
2021/06/15 05:51:35;;;;;;;4.57;2.47;;;18.10;79.50;;;;;;5065434;28;20033;-92
2021/06/15 05:54:03;;;;;;;4.32;2.90;;;18.30;78.80;;;;;;5057508;28;20020;-92
2021/06/15 05:56:32;;;;;;;4.05;2.47;;;18.30;78.60;;;;;;5069366;28;20080;-89
2021/06/15 05:58:58;;;;;;;3.60;2.40;;;18.40;78.90;;;;;;5077190;28;20028;-90
2021/06/15 06:01:25;;;;;;;4.35;2.60;;;18.40;78.60;;;;;;5068361;28;20028;-91
2021/06/15 06:09:07;;;;;;;6.85;2.45;;;18.50;78.70;;;;;;5079059;28;20063;-89
2021/06/15 06:11:32;;;;;;;3.10;2.38;;;18.60;78.40;;;;;;5060284;28;20457;-83
2021/06/15 06:13:58;;;;;;;3.33;2.63;;;18.80;77.80;;;;;;5075001;28;20024;-83
2021/06/15 06:16:24;;;;;;;4.80;2.60;;;18.70;77.70;;;;;;5061627;28;20044;-83
2021/06/15 06:18:49;;;;;;;4.43;2.60;;;18.80;77.50;;;;;;5052425;28;20496;-80
2021/06/15 06:21:15;;;;;;;4.40;2.55;;;18.90;77.10;;;;;;5054866;28;20055;-81
2021/06/15 06:23:41;;;;;;;5.15;2.78;;;19.00;76.60;;;;;;5055545;28;20385;-82
2021/06/15 06:26:06;;;;;;;5.18;2.45;;;19.00;76.20;;;;;;5054536;28;20032;-83
2021/06/15 06:28:32;;;;;;;4.72;2.42;;;19.10;75.60;;;;;;5055418;28;20111;-82
2021/06/15 06:30:58;;;;;;;4.28;2.47;;;19.10;75.20;;;;;;5055819;28;20469;-84
2021/06/15 06:33:24;;;;;;;5.53;2.78;;;19.10;74.60;;;;;;5073289;28;20233;-82
2021/06/15 06:35:50;;;;;;;4.72;2.47;;;19.20;75.30;;;;;;5054598;28;20024;-85
2021/06/15 06:38:16;;;;;;;5.80;2.60;;;19.30;74.80;;;;;;5055462;28;20035;-83
2021/06/15 06:40:41;;;;;;;4.80;2.50;;;19.30;75.20;;;;;;5061439;28;20029;-82
2021/06/15 06:43:09;;;;;;;5.10;2.35;;;19.40;75.30;;;;;;5074318;28;20028;-83
2021/06/15 06:45:35;;;;;;;4.57;2.33;;;19.50;75.00;;;;;;5063150;28;20031;-84
2021/06/15 06:48:02;;;;;;;5.85;2.50;;;19.50;74.80;;;;;;5052022;28;20032;-84
2021/06/15 06:50:28;;;;;;;6.00;2.40;;;19.50;74.30;;;;;;5053325;28;20111;-84
2021/06/15 06:52:53;;;;;;;3.38;2.13;;;19.50;74.00;;;;;;5053518;28;20059;-81
2021/06/15 06:55:20;;;;;;;2.55;2.13;;;19.60;73.20;;;;;;5047962;28;20115;-80
2021/06/15 06:57:47;;;;;;;5.03;2.50;;;19.60;73.40;;;;;;5054783;28;20058;-80
2021/06/15 07:00:14;;;;;;;6.75;2.92;;;19.70;74.40;;;;;;5054503;28;20066;-83
2021/06/15 07:02:40;;;;;;;4.40;2.35;;;19.80;74.00;;;;;;5054843;28;20028;-85
2021/06/15 07:05:06;;;;;;;7.00;2.83;;;19.80;73.10;;;;;;5053964;28;20024;-81
2021/06/15 07:07:33;;;;;;;4.68;2.25;;;19.80;73.50;;;;;;5072382;28;20032;-80
2021/06/15 07:09:59;;;;;;;3.75;2.20;;;19.90;73.90;;;;;;5054698;28;20113;-82
2021/06/15 07:12:25;;;;;;;3.67;2.47;;;19.90;73.90;;;;;;5051480;28;20059;-80
2021/06/15 07:14:51;;;;;;;4.45;1.98;;;20.00;72.00;;;;;;5054623;28;20024;-81
2021/06/15 07:17:17;;;;;;;3.17;2.10;;;20.00;71.90;;;;;;5055297;28;20483;-81
2021/06/15 07:19:42;;;;;;;4.53;2.53;;;20.10;71.70;;;;;;5058116;28;20052;-80
2021/06/15 07:22:08;;;;;;;4.10;2.15;;;20.10;71.30;;;;;;5071065;28;20021;-81
2021/06/15 07:24:35;;;;;;;5.80;2.15;;;20.10;71.20;;;;;;5071073;28;20021;-79
2021/06/15 07:27:01;;;;;;;4.10;2.17;;;20.20;72.40;;;;;;5070509;28;20029;-80
2021/06/15 07:29:27;;;;;;;3.20;1.92;;;20.30;72.00;;;;;;5071695;28;20142;-81
2021/06/15 07:31:53;;;;;;;5.07;2.58;;;20.40;72.20;;;;;;5070987;28;20478;-85
2021/06/15 07:34:19;;;;;;;4.95;2.35;;;20.50;71.70;;;;;;5071577;28;20031;-78
2021/06/15 07:36:45;;;;;;;5.57;2.60;;;20.50;72.00;;;;;;5071215;28;20020;-78
2021/06/15 07:39:11;;;;;;;4.90;2.80;;;20.60;72.60;;;;;;5072402;28;20457;-82
2021/06/15 07:41:37;;;;;;;3.80;2.50;;;20.60;73.40;;;;;;5059067;28;20029;-80
2021/06/15 07:44:04;;;;;;;6.63;2.60;;;20.70;73.20;;;;;;5051379;28;20108;-82
2021/06/15 07:46:29;;;;;;;4.03;2.55;;;20.70;72.00;;;;;;5065112;28;20111;-84
2021/06/15 07:48:55;;;;;;;3.38;2.25;;;20.80;71.80;;;;;;5071238;28;20131;-82
2021/06/15 07:51:21;;;;;;;3.63;2.20;;;20.80;72.10;;;;;;5072049;28;20021;-81
2021/06/15 07:53:47;;;;;;;4.32;2.65;;;20.80;72.90;;;;;;5071916;28;20073;-80
2021/06/15 07:56:13;;;;;;;4.03;2.55;;;20.90;72.80;;;;;;5071463;28;20031;-81
2021/06/15 07:58:39;;;;;;;4.63;2.67;;;20.90;72.70;;;;;;5071876;28;20440;-81
2021/06/15 08:01:04;;;;;;;6.28;2.47;;;21.00;72.80;;;;;;5071428;28;20032;-81
2021/06/15 08:03:30;;;;;;;5.07;2.33;;;21.10;72.10;;;;;;5071392;28;20047;-79
2021/06/15 08:05:56;;;;;;;7.30;2.63;;;21.10;71.10;;;;;;5071079;28;20016;-82
2021/06/15 08:08:22;;;;;;;3.65;2.47;;;21.10;71.00;;;;;;5071391;28;20036;-80
2021/06/15 08:10:47;;;;;;;4.00;2.55;;;21.10;71.00;;;;;;5054267;28;20021;-83
2021/06/15 08:13:13;;;;;;;4.60;2.35;;;21.10;71.20;;;;;;5063632;28;20027;-81
2021/06/15 08:15:39;;;;;;;4.65;2.92;;;21.20;70.80;;;;;;5071667;28;20029;-80
2021/06/15 08:18:05;;;;;;;5.75;2.75;;;21.20;70.20;;;;;;5074083;28;20033;-81
2021/06/15 08:20:31;;;;;;;4.07;2.30;;;21.20;69.50;;;;;;5076632;28;20397;-85
2021/06/15 08:22:56;;;;;;;4.03;2.13;;;21.30;70.10;;;;;;5057868;28;20469;-85
2021/06/15 08:25:22;;;;;;;5.32;2.40;;;21.30;68.10;;;;;;5070913;28;20480;-88
2021/06/15 08:27:48;;;;;;;5.68;2.55;;;21.30;67.60;;;;;;5076596;28;20039;-84
2021/06/15 08:30:14;;;;;;;4.38;2.33;;;21.40;67.30;;;;;;5076012;28;20030;-81
2021/06/15 08:32:40;;;;;;;3.72;2.30;;;21.50;67.10;;;;;;5058800;28;20025;-81
2021/06/15 08:35:07;;;;;;;3.25;2.20;;;21.60;67.00;;;;;;5058780;28;20166;-82
2021/06/15 08:37:35;;;;;;;3.53;2.00;;;21.60;67.90;;;;;;5058676;28;20023;-82
2021/06/15 08:40:00;;;;;;;3.78;2.40;;;21.70;67.90;;;;;;5057556;28;20027;-82
2021/06/15 08:42:26;;;;;;;5.57;2.55;;;21.70;68.90;;;;;;5076017;28;20029;-81
2021/06/15 08:44:52;;;;;;;6.93;2.45;;;21.70;68.40;;;;;;5075108;28;20031;-81
2021/06/15 08:47:18;;;;;;;3.60;1.98;;;21.70;68.50;;;;;;5075255;28;20035;-81
2021/06/15 08:49:45;;;;;;;5.78;2.30;;;21.80;68.20;;;;;;5057174;28;20032;-83
2021/06/15 08:52:11;;;;;;;3.42;2.08;;;21.90;67.70;;;;;;5056911;28;20615;-79
2021/06/15 08:54:38;;;;;;;2.90;2.22;;;21.90;67.70;;;;;;5075485;28;20028;-79
2021/06/15 08:57:04;;;;;;;4.50;2.55;;;22.20;66.30;;;;;;5056597;28;20075;-79
2021/06/15 08:59:30;;;;;;;4.50;2.40;;;22.20;66.80;;;;;;5057728;28;20025;-79
2021/06/15 09:01:58;;;;;;;4.68;2.45;;;22.30;66.50;;;;;;5074511;28;20077;-79
2021/06/15 09:04:24;;;;;;;4.88;2.28;;;22.30;66.50;;;;;;5075030;28;20081;-80
2021/06/15 09:06:54;;;;;;;5.35;1.98;;;22.40;66.30;;;;;;5074528;28;20016;-84
2021/06/15 09:09:20;;;;;;;3.78;2.20;;;22.50;66.50;;;;;;5057224;28;20362;-82
2021/06/15 09:11:55;;;;;;;4.55;2.22;;;22.50;66.40;;;;;;5057158;28;20017;-83
2021/06/15 09:14:46;;;;;;;3.08;2.40;;;22.50;65.90;;;;;;5057393;28;20028;-82
2021/06/15 09:17:32;;;;;;;6.88;2.40;;;22.50;65.50;;;;;;5056722;28;20016;-80
2021/06/15 09:20:19;;;;;;;4.28;2.38;;;22.60;66.20;;;;;;5056548;28;20485;-87
2021/06/15 09:22:58;;;;;;;3.47;2.30;;;22.70;66.30;;;;;;5041533;28;20025;-81
2021/06/15 09:25:25;;;;;;;5.20;2.60;;;22.80;66.80;;;;;;5042143;28;20036;-80
2021/06/15 09:27:51;;;;;;;4.43;2.60;;;22.90;66.50;;;;;;5055659;28;20549;-91
2021/06/15 09:30:18;;;;;;;3.25;2.25;;;23.00;66.30;;;;;;5044533;28;20028;-79
2021/06/15 09:32:46;;;;;;;3.38;2.25;;;23.10;65.80;;;;;;5053050;28;20062;-81
2021/06/15 09:35:14;;;;;;;8.32;2.35;;;23.10;66.00;;;;;;5036525;28;20347;-80
2021/06/15 09:37:46;;;;;;;4.05;2.30;;;23.20;65.70;;;;;;5054266;28;20104;-87
2021/06/15 09:40:16;;;;;;;6.22;2.42;;;23.20;65.50;;;;;;5045966;28;20028;-81
2021/06/15 09:42:59;;;;;;;5.85;2.92;;;23.30;65.10;;;;;;5048082;28;20465;-78
2021/06/15 09:45:37;;;;;;;4.07;2.60;;;23.40;64.60;;;;;;5021062;28;20032;-77
2021/06/15 09:48:25;;;;;;;4.53;2.53;;;23.40;65.00;;;;;;5034983;28;20080;-77
2021/06/15 09:50:56;;;;;;;3.72;2.50;;;23.50;64.50;;;;;;5035358;28;20074;-78
2021/06/15 09:53:43;;;;;;;2.75;2.13;;;23.60;63.60;;;;;;5036002;28;20052;-77
2021/06/15 09:56:12;;;;;;;4.40;2.88;;;23.60;64.00;;;;;;5034931;28;20036;-77
2021/06/15 09:58:48;;;;;;;5.32;2.65;;;23.70;63.50;;;;;;5035695;28;20025;-77
2021/06/15 10:01:34;;;;;;;7.32;2.53;;;23.70;63.20;;;;;;5033100;28;20021;-76
2021/06/15 10:04:20;;;;;;;5.97;2.70;;;23.80;63.10;;;;;;5025223;28;20082;-77
2021/06/15 10:06:52;;;;;;;4.07;2.17;;;24.00;62.00;;;;;;5035775;28;20067;-78
2021/06/15 10:09:28;;;;;;;;;;;24.00;61.70;;;;;;5020690;28;20028;-79
2021/06/15 10:11:59;;;;;;;8.90;2.80;;;24.10;61.10;;;;;;5034562;28;19963;-79
2021/06/15 10:14:27;;;;;;;2.70;2.50;;;24.20;60.40;;;;;;5035192;28;20029;-77
2021/06/15 10:16:54;;;;;;;3.67;2.50;;;24.40;61.40;;;;;;5034999;28;20029;-80
2021/06/15 10:19:21;;;;;;;4.03;2.42;;;24.50;61.00;;;;;;5056730;28;20432;-76
2021/06/15 10:21:47;;;;;;;5.35;2.30;;;24.50;60.50;;;;;;5054821;28;20052;-77
2021/06/15 10:24:14;;;;;;;4.68;2.40;;;24.40;60.60;;;;;;5063315;28;20036;-76
2021/06/15 10:26:41;;;;;;;4.30;2.45;;;24.50;60.30;;;;;;5067040;28;20032;-76
2021/06/15 10:29:14;;;;;;;4.28;2.28;;;24.50;60.00;;;;;;5070902;28;20036;-78
2021/06/15 10:31:42;;;;;;;4.15;2.65;;;24.50;59.80;;;;;;5071637;28;20548;-76
2021/06/15 10:34:08;;;;;;;4.47;2.67;;;24.50;60.10;;;;;;5070938;28;20035;-76
2021/06/15 10:36:46;;;;;;;5.45;2.40;;;24.50;59.80;;;;;;5071380;28;20025;-76
2021/06/15 10:39:38;;;;;;;2.90;2.35;;;24.60;59.90;;;;;;5070732;28;20031;-77
2021/06/15 10:42:14;;;;;;;4.20;2.70;;;24.60;60.20;;;;;;5070453;28;20039;-74
2021/06/15 10:44:41;;;;;;;5.88;2.75;;;24.60;60.30;;;;;;5072580;28;20043;-76
2021/06/15 10:47:11;;;;;;;5.10;2.30;;;24.70;60.60;;;;;;5071958;28;20086;-76
2021/06/15 10:50:03;;;;;;;5.00;2.55;;;24.70;60.70;;;;;;5070982;28;20481;-74
2021/06/15 10:53:02;;;;;;;3.08;2.13;;;24.70;60.50;;;;;;5066445;28;20058;-75
2021/06/15 10:55:51;;;;;;;3.67;2.20;;;24.60;59.90;;;;;;4991260;28;20060;-76
2021/06/15 10:58:43;;;;;;;3.95;2.17;;;24.70;59.40;;;;;;5057614;28;20123;-77
2021/06/15 11:01:15;;;;;;;;;;;24.70;58.80;;;;;;5063508;28;20017;-78
2021/06/15 11:04:17;;;;;;;4.90;2.35;;;24.70;58.50;;;;;;5071347;28;19904;-77
2021/06/15 11:06:46;;;;;;;4.68;2.90;;;24.80;57.80;;;;;;5025239;28;20037;-78
2021/06/15 11:09:16;;;;;;;4.32;2.20;;;24.80;58.00;;;;;;5054325;28;20442;-77
2021/06/15 11:11:44;;;;;;;5.25;2.33;;;24.80;56.40;;;;;;5048970;28;20116;-78
2021/06/15 11:14:15;;;;;;;3.03;2.30;;;24.90;57.40;;;;;;5053779;28;20036;-78
2021/06/15 11:16:51;;;;;;;3.08;2.38;;;24.90;57.50;;;;;;5054460;28;20036;-77
2021/06/15 11:19:17;;;;;;;6.70;2.53;;;24.90;58.20;;;;;;5038354;28;20095;-79
2021/06/15 11:21:58;;;;;;;3.75;2.55;;;24.90;58.30;;;;;;5064108;28;20021;-76
2021/06/15 11:24:37;;;;;;;4.57;2.65;;;25.10;58.80;;;;;;5064913;28;20031;-78
2021/06/15 11:27:07;;;;;;;3.85;2.55;;;25.10;58.50;;;;;;5069007;28;20461;-78
2021/06/15 11:29:37;;;;;;;5.18;2.40;;;25.20;58.20;;;;;;5070950;28;20024;-78
2021/06/15 11:32:18;;;;;;;3.03;2.17;;;25.30;58.50;;;;;;5069950;28;20032;-78
2021/06/15 11:34:53;;;;;;;5.28;2.58;;;25.30;57.40;;;;;;5071028;28;20101;-78
2021/06/15 11:37:34;;;;;;;3.92;1.85;;;25.50;56.10;;;;;;5056404;28;20024;-77
2021/06/15 11:40:16;;;;;;;4.97;2.35;;;25.50;57.00;;;;;;5071538;28;20016;-79
2021/06/15 11:42:46;;;;;;;3.80;2.05;;;25.60;56.30;;;;;;5066494;28;20469;-77
2021/06/15 11:45:18;;;;;;;2.90;2.00;;;25.70;56.10;;;;;;5053606;28;20032;-77
2021/06/15 11:48:12;;;;;;;3.00;2.28;;;25.70;54.80;;;;;;5070351;28;20032;-79
2021/06/15 11:50:40;;;;;;;3.65;2.13;;;25.80;54.90;;;;;;5054474;28;20033;-79
2021/06/15 11:53:18;;;;;;;4.28;2.03;;;25.80;54.50;;;;;;5057472;28;20469;-78
2021/06/15 11:55:56;;;;;;;5.30;1.80;;;25.70;54.80;;;;;;5071196;28;20016;-80
2021/06/15 11:58:28;;;;;;;3.33;2.00;;;25.90;55.60;;;;;;5062241;28;20032;-82
2021/06/15 12:01:22;;;;;;;4.05;2.03;;;25.90;55.90;;;;;;5074062;28;20055;-78
2021/06/15 12:03:48;;;;;;;4.22;1.90;;;25.90;54.90;;;;;;5070651;28;20555;-79
2021/06/15 12:06:16;;;;;;;3.25;2.42;;;25.90;54.30;;;;;;5073751;28;20024;-78
2021/06/15 12:08:44;;;;;;;2.67;2.00;;;26.00;54.50;;;;;;5074560;28;20059;-78
2021/06/15 12:11:14;;;;;;;5.13;2.22;;;26.00;53.90;;;;;;5064676;28;20017;-79
2021/06/15 12:13:41;;;;;;;2.65;1.75;;;26.10;53.70;;;;;;5061560;28;20039;-79
2021/06/15 12:16:24;;;;;;;5.35;2.10;;;26.20;51.90;;;;;;5058227;28;20047;-79
2021/06/15 12:18:58;;;;;;;3.67;1.98;;;26.20;53.00;;;;;;5074744;28;20037;-79
2021/06/15 12:21:28;;;;;;;2.10;1.75;;;26.40;53.20;;;;;;5074250;28;20044;-78
2021/06/15 12:24:05;;;;;;;3.28;2.00;;;26.40;53.60;;;;;;5074172;28;20048;-80
2021/06/15 12:26:33;;;;;;;3.97;2.22;;;26.40;51.20;;;;;;5075352;28;20024;-79
2021/06/15 12:29:11;;;;;;;2.60;1.77;;;26.50;50.40;;;;;;5073652;28;20029;-81
2021/06/15 12:31:42;;;;;;;3.65;2.20;;;26.60;49.80;;;;;;5073960;28;20381;-80
2021/06/15 12:34:08;;;;;;;4.03;2.10;;;26.60;50.60;;;;;;5074012;28;20170;-78
2021/06/15 12:36:40;;;;;;;3.35;1.63;;;26.70;50.50;;;;;;5074918;28;20090;-77
2021/06/15 12:39:13;;;;;;;;;;;26.80;50.50;;;;;;5073744;28;20037;-78
2021/06/15 12:41:55;;;;;;;3.70;1.70;;;26.90;51.50;;;;;;5100263;28;19916;-77
2021/06/15 12:44:39;;;;;;;2.38;1.73;;;27.00;53.00;;;;;;5073763;28;20028;-77
2021/06/15 12:47:10;;;;;;;2.67;1.38;;;27.10;52.30;;;;;;5072964;28;20028;-77
2021/06/15 12:49:37;;;;;;;2.83;1.55;;;27.30;50.00;;;;;;5073177;28;20084;-77
2021/06/15 12:52:10;;;;;;;3.55;1.27;;;27.40;48.10;;;;;;5074444;28;20024;-78
2021/06/15 12:54:37;;;;;;;1.55;0.93;;;27.70;45.60;;;;;;5073559;28;20039;-78
2021/06/15 12:57:18;;;;;;;1.38;1.00;;;27.80;45.20;;;;;;5073022;28;20025;-77
2021/06/15 12:59:56;;;;;;;1.57;1.07;;;27.90;43.60;;;;;;5073420;28;20016;-76
2021/06/15 13:02:24;;;;;;;1.88;1.10;;;28.10;42.20;;;;;;5074142;28;20024;-79
2021/06/15 13:04:58;;;;;;;2.33;1.00;;;28.30;42.70;;;;;;5073068;28;20029;-78
2021/06/15 13:07:26;;;;;;;1.83;0.85;;;28.40;44.10;;;;;;5073233;28;20029;-77
2021/06/15 13:09:53;;;;;;;1.30;1.08;;;28.70;42.40;;;;;;5072855;28;20107;-77
2021/06/15 13:12:32;;;;;;;2.38;0.90;;;28.90;41.90;;;;;;5074303;28;20052;-78
2021/06/15 13:15:08;;;;;;;1.77;1.00;;;29.10;39.80;;;;;;5072922;28;20029;-76